American Islander — WDC5089 — position and weather

sailwx.info

Track history (hours):
 
Tides and Currents Weather Stations Pressure Air Temp Water Temp Dewpoint Dewpoint Depression Visibility Wind Speed Wind Dir Waves Ship Positions

American Islander

Owner: AMERICAN WORKBOATS, INC., HONOLULU, HI. More information available from US FCC via Universal Licensing System and Coast Guard Vessel Documentation Center.

Last reported at 2018-Apr-26 03:30 UTC. Time now 2018-Apr-26 03:55 UTC.
Position N 33°42' W 118°21'.

Length 31 m; draft 4 m.

Type: Other ship. MMSI: 367035570.

Date/timePositionNaut miles runAvg speedWind from/ knotsBaromVisibWave heightAir tempDewpointWater temp
2018-Apr-26 03:30N 33°42' W 118°21'2 3.3
2018-Apr-26 03:00N 33°41' W 118°23'1 1.8
2018-Apr-26 02:30N 33°41' W 118°24'1 2.7
2018-Apr-26 02:00N 33°40' W 118°22'1 1.7
2018-Apr-26 01:25N 33°41' W 118°21'1 2.1
2018-Apr-26 00:59N 33°42' W 118°23'1 1.3
2018-Apr-26 00:30N 33°42' W 118°23'0 0.3
2018-Apr-25 23:53N 33°41' W 118°23'0 0.7
2018-Apr-25 23:30N 33°41' W 118°23'0 0.6
2018-Apr-25 22:57N 33°41' W 118°23'0 0.7
2018-Apr-25 22:30N 33°42' W 118°23'0 0.9
2018-Apr-25 22:00N 33°41' W 118°23'1 0.6
2018-Apr-25 19:58N 33°42' W 118°22'1 0.2
2018-Apr-25 17:03N 33°42' W 118°22'0 2.7
2018-Apr-25 16:56N 33°42' W 118°21'2 0.2
2018-Apr-25 07:57N 33°42' W 118°23'0 0.5
2018-Apr-25 07:30N 33°41' W 118°23'2 3.0
2018-Apr-25 07:00N 33°42' W 118°22'0 0.5
2018-Apr-25 06:30N 33°42' W 118°21'2 3.2
2018-Apr-25 05:55N 33°41' W 118°24'0 0.4
2018-Apr-25 05:30N 33°41' W 118°23'2 3.1
2018-Apr-25 04:57N 33°42' W 118°21'0 0.9
2018-Apr-25 04:30N 33°42' W 118°21'2 3.2
2018-Apr-25 03:56N 33°41' W 118°23'1 2.2
2018-Apr-25 03:30N 33°41' W 118°24'2 3.0
2018-Apr-25 02:48N 33°42' W 118°22'1 2.8
2018-Apr-25 02:30N 33°42' W 118°21'2 2.9
2018-Apr-25 01:52N 33°41' W 118°23'1 1.8
2018-Apr-25 01:30N 33°41' W 118°23'1 2.7
2018-Apr-25 01:01N 33°41' W 118°22'1 1.4
2018-Apr-25 00:30N 33°42' W 118°21'0 0.7
2018-Apr-25 00:00N 33°42' W 118°21'2 3.6
2018-Apr-24 23:30N 33°41' W 118°23'0 0.8
2018-Apr-24 23:00N 33°41' W 118°23'1 1.4
2018-Apr-24 22:29N 33°41' W 118°22'1 2.1
2018-Apr-24 21:54N 33°42' W 118°21'0 0.9
2018-Apr-24 21:30N 33°42' W 118°21'0 0.9
2018-Apr-24 20:59N 33°42' W 118°22'1 2.2
2018-Apr-24 20:25N 33°42' W 118°23'0 0.5
2018-Apr-24 19:52N 33°42' W 118°23'0 0.2
2018-Apr-24 18:06N 33°42' W 118°23'0 0.8
2018-Apr-24 17:52N 33°42' W 118°23'2 3.6
2018-Apr-24 17:21N 33°42' W 118°21'1 4.1
2018-Apr-24 17:00N 33°42' W 118°19'2 3.8
2018-Apr-24 16:30N 33°42' W 118°17'2 3.1
2018-Apr-24 16:00N 33°43' W 118°15'1 2.4
2018-Apr-24 15:30N 33°43' W 118°16'0 0.0
2018-Apr-24 15:00N 33°43' W 118°16'0 0.0
2018-Apr-24 14:30N 33°43' W 118°16'0 0.0
2018-Apr-24 14:00N 33°43' W 118°16'0 0.0
2018-Apr-24 13:30N 33°43' W 118°16'0 0.0
2018-Apr-24 13:00N 33°43' W 118°16'0 0.0
2018-Apr-24 12:30N 33°43' W 118°16'0 0.0
2018-Apr-24 11:59N 33°43' W 118°16'0 0.0
2018-Apr-24 11:30N 33°43' W 118°16'0 0.0
2018-Apr-24 11:00N 33°43' W 118°16'0 0.0
2018-Apr-24 10:30N 33°43' W 118°16'0 0.0
2018-Apr-24 10:00N 33°43' W 118°16'0 0.0
2018-Apr-24 09:30N 33°43' W 118°16'0 0.0
2018-Apr-24 09:00N 33°43' W 118°16'0 0.0
2018-Apr-24 08:30N 33°43' W 118°16'0 0.0
2018-Apr-24 08:00N 33°43' W 118°16'0 0.0
2018-Apr-24 07:30N 33°43' W 118°16'0 0.0
2018-Apr-24 07:00N 33°43' W 118°16'0 0.0
2018-Apr-24 06:30N 33°43' W 118°16'0 0.0
2018-Apr-24 06:00N 33°43' W 118°16'0 0.0
2018-Apr-24 05:30N 33°43' W 118°16'0 0.0
2018-Apr-24 05:00N 33°43' W 118°16'0 0.0
2018-Apr-24 04:30N 33°43' W 118°16'0 0.0
2018-Apr-24 04:00N 33°43' W 118°16'0 0.0
2018-Apr-24 03:30N 33°43' W 118°16'0 0.0
2018-Apr-24 03:00N 33°43' W 118°16'0 0.0
2018-Apr-24 02:30N 33°43' W 118°16'0 0.0
2018-Apr-24 02:00N 33°43' W 118°16'0 0.0
2018-Apr-24 01:30N 33°43' W 118°16'0 0.0
2018-Apr-24 01:00N 33°43' W 118°16'0 0.0
2018-Apr-24 00:30N 33°43' W 118°16'0 0.0
2018-Apr-24 00:00N 33°43' W 118°16'0 0.0
2018-Apr-23 23:30N 33°43' W 118°16'0 0.0
2018-Apr-23 23:00N 33°43' W 118°16'0 0.0
2018-Apr-23 22:30N 33°43' W 118°16'0 0.5
2018-Apr-23 22:00N 33°43' W 118°16'1 1.6
2018-Apr-23 21:31N 33°44' W 118°16'0 0.4
2018-Apr-23 21:00N 33°44' W 118°16'0 0.0
2018-Apr-23 20:30N 33°44' W 118°16'0 0.0
2018-Apr-23 20:00N 33°44' W 118°16'0 0.0
2018-Apr-23 19:30N 33°44' W 118°16'0 0.0
2018-Apr-23 19:00N 33°44' W 118°16'0 0.0
2018-Apr-23 18:30N 33°44' W 118°16'0 0.0
2018-Apr-23 18:00N 33°44' W 118°16'0 0.1
2018-Apr-23 17:30N 33°44' W 118°16'1 1.0
2018-Apr-23 17:00N 33°44' W 118°16'1 2.5
2018-Apr-23 16:30N 33°43' W 118°15'2 3.8
2018-Apr-23 16:00N 33°44' W 118°12'2 3.1
2018-Apr-23 15:30N 33°44' W 118°11'1 2.5
2018-Apr-23 15:00N 33°44' W 118°09'2 3.0
2018-Apr-23 14:30N 33°44' W 118°07'1 2.1
2018-Apr-23 13:59N 33°45' W 118°07'6 2.0
2018-Apr-23 10:46N 33°43' W 118°14'1 5.3
2018-Apr-23 10:30N 33°43' W 118°16'1 1.2
2018-Apr-23 09:59N 33°44' W 118°16'0 0.0
2018-Apr-23 09:30N 33°44' W 118°16'0 0.0
2018-Apr-23 09:00N 33°44' W 118°16'0 0.0
2018-Apr-23 08:30N 33°44' W 118°16'0 0.0
2018-Apr-23 08:00N 33°44' W 118°16'0 0.0
2018-Apr-23 07:30N 33°44' W 118°16'0 0.0
2018-Apr-23 07:00N 33°44' W 118°16'0 0.0
2018-Apr-23 06:30N 33°44' W 118°16'0 0.0
2018-Apr-23 06:00N 33°44' W 118°16'0 0.0
2018-Apr-23 05:30N 33°44' W 118°16'0 0.0
2018-Apr-23 05:00N 33°44' W 118°16'0 0.0
2018-Apr-23 04:30N 33°44' W 118°16'0 0.0
2018-Apr-23 04:00N 33°44' W 118°16'0 0.0
2018-Apr-23 03:30N 33°44' W 118°16'0 0.0
2018-Apr-23 03:00N 33°44' W 118°16'0 0.0
2018-Apr-23 02:30N 33°44' W 118°16'0 0.0
2018-Apr-23 02:00N 33°44' W 118°16'0 0.0
2018-Apr-23 01:30N 33°44' W 118°16'0 0.0
2018-Apr-23 01:00N 33°44' W 118°16'0 0.0
2018-Apr-23 00:30N 33°44' W 118°16'0 0.0
2018-Apr-23 00:00N 33°44' W 118°16'0 0.0
2018-Apr-22 23:30N 33°44' W 118°16'0 0.0
2018-Apr-22 22:59N 33°44' W 118°16'0 0.0
2018-Apr-22 22:30N 33°44' W 118°16'0 0.0
2018-Apr-22 22:00N 33°44' W 118°16'0 0.0
2018-Apr-22 21:30N 33°44' W 118°16'0 0.0
2018-Apr-22 21:00N 33°44' W 118°16'0 0.0
2018-Apr-22 20:30N 33°44' W 118°16'0 0.0
2018-Apr-22 20:00N 33°44' W 118°16'0 0.0
2018-Apr-22 19:30N 33°44' W 118°16'0 0.0
2018-Apr-22 19:00N 33°44' W 118°16'0 0.0
2018-Apr-22 18:30N 33°44' W 118°16'0 0.0
2018-Apr-22 18:00N 33°44' W 118°16'0 0.0
2018-Apr-22 17:30N 33°44' W 118°16'0 0.0
2018-Apr-22 17:00N 33°44' W 118°16'0 0.0
2018-Apr-22 16:30N 33°44' W 118°16'0 0.0
2018-Apr-22 16:00N 33°44' W 118°16'0 0.0
2018-Apr-22 15:30N 33°44' W 118°16'0 0.0
2018-Apr-22 15:00N 33°44' W 118°16'0 0.0
2018-Apr-22 14:30N 33°44' W 118°16'0 0.0
2018-Apr-22 14:00N 33°44' W 118°16'0 0.0
2018-Apr-22 13:30N 33°44' W 118°16'0 0.0
2018-Apr-22 13:00N 33°44' W 118°16'0 0.0
2018-Apr-22 12:30N 33°44' W 118°16'0 0.0
2018-Apr-22 12:00N 33°44' W 118°16'0 0.0
2018-Apr-22 11:30N 33°44' W 118°16'0 0.0
2018-Apr-22 11:00N 33°44' W 118°16'0 0.0
2018-Apr-22 10:30N 33°44' W 118°16'0 0.0
2018-Apr-22 10:00N 33°44' W 118°16'0 0.0
2018-Apr-22 09:30N 33°44' W 118°16'0 0.0
2018-Apr-22 09:00N 33°44' W 118°16'0 0.0
2018-Apr-22 08:30N 33°44' W 118°16'0 0.0
2018-Apr-22 08:00N 33°44' W 118°16'0 0.0
2018-Apr-22 07:30N 33°44' W 118°16'0 0.0
2018-Apr-22 07:00N 33°44' W 118°16'0 0.0
2018-Apr-22 06:30N 33°44' W 118°16'0 0.0
2018-Apr-22 06:00N 33°44' W 118°16'0 0.0
2018-Apr-22 05:30N 33°44' W 118°16'0 0.0
2018-Apr-22 05:00N 33°44' W 118°16'0 0.0
2018-Apr-22 04:30N 33°44' W 118°16'0 0.0
2018-Apr-22 04:00N 33°44' W 118°16'0 0.0
2018-Apr-22 03:30N 33°44' W 118°16'0 0.0
2018-Apr-22 03:00N 33°44' W 118°16'0 0.0
2018-Apr-22 02:30N 33°44' W 118°16'0 0.0
2018-Apr-22 02:00N 33°44' W 118°16'0 0.0
2018-Apr-22 01:30N 33°44' W 118°16'0 0.0
2018-Apr-22 01:00N 33°44' W 118°16'0 0.0
2018-Apr-22 00:30N 33°44' W 118°16'0 0.0
2018-Apr-22 00:00N 33°44' W 118°16'0 0.0
2018-Apr-21 23:29N 33°44' W 118°16'0 0.0
2018-Apr-21 23:00N 33°44' W 118°16'0 0.0
2018-Apr-21 22:30N 33°44' W 118°16'0 0.0
2018-Apr-21 22:00N 33°44' W 118°16'0 0.0
2018-Apr-21 21:30N 33°44' W 118°16'0 0.0
2018-Apr-21 21:00N 33°44' W 118°16'0 0.0
2018-Apr-21 20:30N 33°44' W 118°16'0 0.0
2018-Apr-21 20:00N 33°44' W 118°16'0 0.0
2018-Apr-21 19:30N 33°44' W 118°16'0 0.0
2018-Apr-21 19:00N 33°44' W 118°16'0 0.0
2018-Apr-21 18:30N 33°44' W 118°16'0 0.0
2018-Apr-21 18:00N 33°44' W 118°16'0 0.0
2018-Apr-21 17:30N 33°44' W 118°16'0 0.0
2018-Apr-21 17:00N 33°44' W 118°16'0 0.0
2018-Apr-21 16:30N 33°44' W 118°16'0 0.0
2018-Apr-21 16:00N 33°44' W 118°16'0 0.0
2018-Apr-21 15:30N 33°44' W 118°16'0 0.0
2018-Apr-21 15:00N 33°44' W 118°16'0 0.0
2018-Apr-21 14:30N 33°44' W 118°16'0 0.0
2018-Apr-21 14:00N 33°44' W 118°16'0 0.0
2018-Apr-21 13:30N 33°44' W 118°16'0 0.0
2018-Apr-21 13:00N 33°44' W 118°16'0 0.0
2018-Apr-21 12:30N 33°44' W 118°16'0 0.0
2018-Apr-21 12:00N 33°44' W 118°16'0 0.0
2018-Apr-21 11:30N 33°44' W 118°16'0 0.0
2018-Apr-21 11:00N 33°44' W 118°16'0 0.0
2018-Apr-21 10:30N 33°44' W 118°16'0 0.0
2018-Apr-21 10:00N 33°44' W 118°16'0 0.0
2018-Apr-21 09:30N 33°44' W 118°16'0 0.0
2018-Apr-21 09:00N 33°44' W 118°16'0 0.0
2018-Apr-21 08:30N 33°44' W 118°16'0 0.0
2018-Apr-21 08:00N 33°44' W 118°16'0 0.0
2018-Apr-21 07:30N 33°44' W 118°16'0 0.0
2018-Apr-21 07:00N 33°44' W 118°16'0 0.0
2018-Apr-21 06:30N 33°44' W 118°16'0 0.0
2018-Apr-21 06:00N 33°44' W 118°16'0 0.0
2018-Apr-21 05:31N 33°44' W 118°16'0 0.0
2018-Apr-21 05:00N 33°44' W 118°16'0 0.0
2018-Apr-21 04:30N 33°44' W 118°16'0 0.0
2018-Apr-21 04:00N 33°44' W 118°16'0 0.0
2018-Apr-21 03:30N 33°44' W 118°16'0 0.0
2018-Apr-21 03:00N 33°44' W 118°16'0 0.0
2018-Apr-21 02:30N 33°44' W 118°16'0 0.0
2018-Apr-21 02:00N 33°44' W 118°16'0 0.0
2018-Apr-21 01:30N 33°44' W 118°16'0 0.0
2018-Apr-21 01:00N 33°44' W 118°16'0 0.1
2018-Apr-21 00:30N 33°44' W 118°16'0 0.1
2018-Apr-21 00:00N 33°44' W 118°16'0 0.0
2018-Apr-20 23:30N 33°44' W 118°16'0 0.1
2018-Apr-20 22:59N 33°44' W 118°16'0 0.1
2018-Apr-20 22:30N 33°44' W 118°16'0 0.0
2018-Apr-20 22:00N 33°44' W 118°16'0 0.0
2018-Apr-20 21:28N 33°44' W 118°16'0 0.0
2018-Apr-20 20:58N 33°44' W 118°16'0 0.0
2018-Apr-20 20:30N 33°44' W 118°16'0 0.0
2018-Apr-20 20:00N 33°44' W 118°16'0 0.0
2018-Apr-20 19:30N 33°44' W 118°16'0 0.0
2018-Apr-20 19:00N 33°44' W 118°16'0 0.0
2018-Apr-20 18:30N 33°44' W 118°16'0 0.0
2018-Apr-20 18:00N 33°44' W 118°16'0 0.0
2018-Apr-20 17:30N 33°44' W 118°16'0 0.0
2018-Apr-20 17:00N 33°44' W 118°16'0 0.0
2018-Apr-20 16:30N 33°44' W 118°16'0 0.0
2018-Apr-20 16:00N 33°44' W 118°16'0 0.0
2018-Apr-20 15:30N 33°44' W 118°16'0 0.0
2018-Apr-20 15:00N 33°44' W 118°16'0 0.0
2018-Apr-20 14:30N 33°44' W 118°16'0 0.0
2018-Apr-20 14:00N 33°44' W 118°16'0 0.0
2018-Apr-20 13:30N 33°44' W 118°16'0 0.0
2018-Apr-20 13:00N 33°44' W 118°16'0 0.0
2018-Apr-20 12:30N 33°44' W 118°16'0 0.0
2018-Apr-20 12:00N 33°44' W 118°16'0 0.0
2018-Apr-20 11:30N 33°44' W 118°16'0 0.0
2018-Apr-20 11:00N 33°44' W 118°16'0 0.0
2018-Apr-20 10:30N 33°44' W 118°16'0 0.0
2018-Apr-20 09:58N 33°44' W 118°16'0 0.0
2018-Apr-20 09:30N 33°44' W 118°16'0 0.0
2018-Apr-20 09:00N 33°44' W 118°16'0 0.0
2018-Apr-20 08:30N 33°44' W 118°16'0 0.0
2018-Apr-20 08:00N 33°44' W 118°16'0 0.0
2018-Apr-20 07:30N 33°44' W 118°16'0 0.0
2018-Apr-20 07:00N 33°44' W 118°16'0 0.0
2018-Apr-20 06:30N 33°44' W 118°16'0 0.0
2018-Apr-20 06:00N 33°44' W 118°16'0 0.0
2018-Apr-20 05:30N 33°44' W 118°16'0 0.0
2018-Apr-20 05:00N 33°44' W 118°16'0 0.0
2018-Apr-20 04:30N 33°44' W 118°16'0 0.0
2018-Apr-20 04:00N 33°44' W 118°16'0 0.0
2018-Apr-20 03:28N 33°44' W 118°16'0 0.0
2018-Apr-20 03:00N 33°44' W 118°16'0 0.0
2018-Apr-20 02:29N 33°44' W 118°16'0 0.1
2018-Apr-20 02:01N 33°44' W 118°16'0 0.1
2018-Apr-20 01:30N 33°44' W 118°16'0 0.0
2018-Apr-20 01:00N 33°44' W 118°16'0 0.0
2018-Apr-20 00:30N 33°44' W 118°16'0 0.0
2018-Apr-20 00:00N 33°44' W 118°16'0 0.0
2018-Apr-19 23:30N 33°44' W 118°16'0 0.0
2018-Apr-19 23:00N 33°44' W 118°16'0 0.0
2018-Apr-19 22:30N 33°44' W 118°16'0 0.0
2018-Apr-19 21:59N 33°44' W 118°16'0 0.0
2018-Apr-19 21:30N 33°44' W 118°16'0 0.0
2018-Apr-19 21:00N 33°44' W 118°16'0 0.5
2018-Apr-19 20:30N 33°44' W 118°16'0 0.0
2018-Apr-19 20:00N 33°44' W 118°16'0 0.0
2018-Apr-19 02:49N 33°44' W 118°16'0 0.0
2018-Apr-19 02:30N 33°44' W 118°16'0 0.0
2018-Apr-19 02:00N 33°44' W 118°16'0 0.0
2018-Apr-19 01:30N 33°44' W 118°16'0 0.0
2018-Apr-19 01:00N 33°44' W 118°16'0 0.0
2018-Apr-19 00:29N 33°44' W 118°16'0 0.0
2018-Apr-19 00:00N 33°44' W 118°16'0 0.0
2018-Apr-18 23:30N 33°44' W 118°16'0 0.0
2018-Apr-18 23:00N 33°44' W 118°16'0 0.0
2018-Apr-18 22:13N 33°44' W 118°16'0 0.0
2018-Apr-18 22:00N 33°44' W 118°16'0 0.0
2018-Apr-18 21:30N 33°44' W 118°16'0 0.5
2018-Apr-18 21:00N 33°44' W 118°16'0 0.0
2018-Apr-18 20:30N 33°44' W 118°16'0 0.0
2018-Apr-18 20:00N 33°44' W 118°16'  
Track history (hours):
 
Tides and Currents Weather Stations Pressure Air Temp Water Temp Dewpoint Dewpoint Depression Visibility Wind Speed Wind Dir Waves Ship Positions

American Islander

Owner: AMERICAN WORKBOATS, INC., HONOLULU, HI. More information available from US FCC via Universal Licensing System and Coast Guard Vessel Documentation Center.

Last reported at 2018-Apr-26 03:30 UTC. Time now 2018-Apr-26 03:55 UTC.
Position N 33°42' W 118°21'.

Length 31 m; draft 4 m.

Type: Other ship. MMSI: 367035570.

Date/timePositionNaut miles runAvg speedWind from/ knotsBaromVisibWave heightAir tempDewpointWater temp
2018-Apr-26 03:30N 33°42' W 118°21'2 3.3
2018-Apr-26 03:00N 33°41' W 118°23'1 1.8
2018-Apr-26 02:30N 33°41' W 118°24'1 2.7
2018-Apr-26 02:00N 33°40' W 118°22'1 1.7
2018-Apr-26 01:25N 33°41' W 118°21'1 2.1
2018-Apr-26 00:59N 33°42' W 118°23'1 1.3
2018-Apr-26 00:30N 33°42' W 118°23'0 0.3
2018-Apr-25 23:53N 33°41' W 118°23'0 0.7
2018-Apr-25 23:30N 33°41' W 118°23'0 0.6
2018-Apr-25 22:57N 33°41' W 118°23'0 0.7
2018-Apr-25 22:30N 33°42' W 118°23'0 0.9
2018-Apr-25 22:00N 33°41' W 118°23'1 0.6
2018-Apr-25 19:58N 33°42' W 118°22'1 0.2
2018-Apr-25 17:03N 33°42' W 118°22'0 2.7
2018-Apr-25 16:56N 33°42' W 118°21'2 0.2
2018-Apr-25 07:57N 33°42' W 118°23'0 0.5
2018-Apr-25 07:30N 33°41' W 118°23'2 3.0
2018-Apr-25 07:00N 33°42' W 118°22'0 0.5
2018-Apr-25 06:30N 33°42' W 118°21'2 3.2
2018-Apr-25 05:55N 33°41' W 118°24'0 0.4
2018-Apr-25 05:30N 33°41' W 118°23'2 3.1
2018-Apr-25 04:57N 33°42' W 118°21'0 0.9
2018-Apr-25 04:30N 33°42' W 118°21'2 3.2
2018-Apr-25 03:56N 33°41' W 118°23'1 2.2
2018-Apr-25 03:30N 33°41' W 118°24'2 3.0
2018-Apr-25 02:48N 33°42' W 118°22'1 2.8
2018-Apr-25 02:30N 33°42' W 118°21'2 2.9
2018-Apr-25 01:52N 33°41' W 118°23'1 1.8
2018-Apr-25 01:30N 33°41' W 118°23'1 2.7
2018-Apr-25 01:01N 33°41' W 118°22'1 1.4
2018-Apr-25 00:30N 33°42' W 118°21'0 0.7
2018-Apr-25 00:00N 33°42' W 118°21'2 3.6
2018-Apr-24 23:30N 33°41' W 118°23'0 0.8
2018-Apr-24 23:00N 33°41' W 118°23'1 1.4
2018-Apr-24 22:29N 33°41' W 118°22'1 2.1
2018-Apr-24 21:54N 33°42' W 118°21'0 0.9
2018-Apr-24 21:30N 33°42' W 118°21'0 0.9
2018-Apr-24 20:59N 33°42' W 118°22'1 2.2
2018-Apr-24 20:25N 33°42' W 118°23'0 0.5
2018-Apr-24 19:52N 33°42' W 118°23'0 0.2
2018-Apr-24 18:06N 33°42' W 118°23'0 0.8
2018-Apr-24 17:52N 33°42' W 118°23'2 3.6
2018-Apr-24 17:21N 33°42' W 118°21'1 4.1
2018-Apr-24 17:00N 33°42' W 118°19'2 3.8
2018-Apr-24 16:30N 33°42' W 118°17'2 3.1
2018-Apr-24 16:00N 33°43' W 118°15'1 2.4
2018-Apr-24 15:30N 33°43' W 118°16'0 0.0
2018-Apr-24 15:00N 33°43' W 118°16'0 0.0
2018-Apr-24 14:30N 33°43' W 118°16'0 0.0
2018-Apr-24 14:00N 33°43' W 118°16'0 0.0
2018-Apr-24 13:30N 33°43' W 118°16'0 0.0
2018-Apr-24 13:00N 33°43' W 118°16'0 0.0
2018-Apr-24 12:30N 33°43' W 118°16'0 0.0
2018-Apr-24 11:59N 33°43' W 118°16'0 0.0
2018-Apr-24 11:30N 33°43' W 118°16'0 0.0
2018-Apr-24 11:00N 33°43' W 118°16'0 0.0
2018-Apr-24 10:30N 33°43' W 118°16'0 0.0
2018-Apr-24 10:00N 33°43' W 118°16'0 0.0
2018-Apr-24 09:30N 33°43' W 118°16'0 0.0
2018-Apr-24 09:00N 33°43' W 118°16'0 0.0
2018-Apr-24 08:30N 33°43' W 118°16'0 0.0
2018-Apr-24 08:00N 33°43' W 118°16'0 0.0
2018-Apr-24 07:30N 33°43' W 118°16'0 0.0
2018-Apr-24 07:00N 33°43' W 118°16'0 0.0
2018-Apr-24 06:30N 33°43' W 118°16'0 0.0
2018-Apr-24 06:00N 33°43' W 118°16'0 0.0
2018-Apr-24 05:30N 33°43' W 118°16'0 0.0
2018-Apr-24 05:00N 33°43' W 118°16'0 0.0
2018-Apr-24 04:30N 33°43' W 118°16'0 0.0
2018-Apr-24 04:00N 33°43' W 118°16'0 0.0
2018-Apr-24 03:30N 33°43' W 118°16'0 0.0
2018-Apr-24 03:00N 33°43' W 118°16'0 0.0
2018-Apr-24 02:30N 33°43' W 118°16'0 0.0
2018-Apr-24 02:00N 33°43' W 118°16'0 0.0
2018-Apr-24 01:30N 33°43' W 118°16'0 0.0
2018-Apr-24 01:00N 33°43' W 118°16'0 0.0
2018-Apr-24 00:30N 33°43' W 118°16'0 0.0
2018-Apr-24 00:00N 33°43' W 118°16'0 0.0
2018-Apr-23 23:30N 33°43' W 118°16'0 0.0
2018-Apr-23 23:00N 33°43' W 118°16'0 0.0
2018-Apr-23 22:30N 33°43' W 118°16'0 0.5
2018-Apr-23 22:00N 33°43' W 118°16'1 1.6
2018-Apr-23 21:31N 33°44' W 118°16'0 0.4
2018-Apr-23 21:00N 33°44' W 118°16'0 0.0
2018-Apr-23 20:30N 33°44' W 118°16'0 0.0
2018-Apr-23 20:00N 33°44' W 118°16'0 0.0
2018-Apr-23 19:30N 33°44' W 118°16'0 0.0
2018-Apr-23 19:00N 33°44' W 118°16'0 0.0
2018-Apr-23 18:30N 33°44' W 118°16'0 0.0
2018-Apr-23 18:00N 33°44' W 118°16'0 0.1
2018-Apr-23 17:30N 33°44' W 118°16'1 1.0
2018-Apr-23 17:00N 33°44' W 118°16'1 2.5
2018-Apr-23 16:30N 33°43' W 118°15'2 3.8
2018-Apr-23 16:00N 33°44' W 118°12'2 3.1
2018-Apr-23 15:30N 33°44' W 118°11'1 2.5
2018-Apr-23 15:00N 33°44' W 118°09'2 3.0
2018-Apr-23 14:30N 33°44' W 118°07'1 2.1
2018-Apr-23 13:59N 33°45' W 118°07'6 2.0
2018-Apr-23 10:46N 33°43' W 118°14'1 5.3
2018-Apr-23 10:30N 33°43' W 118°16'1 1.2
2018-Apr-23 09:59N 33°44' W 118°16'0 0.0
2018-Apr-23 09:30N 33°44' W 118°16'0 0.0
2018-Apr-23 09:00N 33°44' W 118°16'0 0.0
2018-Apr-23 08:30N 33°44' W 118°16'0 0.0
2018-Apr-23 08:00N 33°44' W 118°16'0 0.0
2018-Apr-23 07:30N 33°44' W 118°16'0 0.0
2018-Apr-23 07:00N 33°44' W 118°16'0 0.0
2018-Apr-23 06:30N 33°44' W 118°16'0 0.0
2018-Apr-23 06:00N 33°44' W 118°16'0 0.0
2018-Apr-23 05:30N 33°44' W 118°16'0 0.0
2018-Apr-23 05:00N 33°44' W 118°16'0 0.0
2018-Apr-23 04:30N 33°44' W 118°16'0 0.0
2018-Apr-23 04:00N 33°44' W 118°16'0 0.0
2018-Apr-23 03:30N 33°44' W 118°16'0 0.0
2018-Apr-23 03:00N 33°44' W 118°16'0 0.0
2018-Apr-23 02:30N 33°44' W 118°16'0 0.0
2018-Apr-23 02:00N 33°44' W 118°16'0 0.0
2018-Apr-23 01:30N 33°44' W 118°16'0 0.0
2018-Apr-23 01:00N 33°44' W 118°16'0 0.0
2018-Apr-23 00:30N 33°44' W 118°16'0 0.0
2018-Apr-23 00:00N 33°44' W 118°16'0 0.0
2018-Apr-22 23:30N 33°44' W 118°16'0 0.0
2018-Apr-22 22:59N 33°44' W 118°16'0 0.0
2018-Apr-22 22:30N 33°44' W 118°16'0 0.0
2018-Apr-22 22:00N 33°44' W 118°16'0 0.0
2018-Apr-22 21:30N 33°44' W 118°16'0 0.0
2018-Apr-22 21:00N 33°44' W 118°16'0 0.0
2018-Apr-22 20:30N 33°44' W 118°16'0 0.0
2018-Apr-22 20:00N 33°44' W 118°16'0 0.0
2018-Apr-22 19:30N 33°44' W 118°16'0 0.0
2018-Apr-22 19:00N 33°44' W 118°16'0 0.0
2018-Apr-22 18:30N 33°44' W 118°16'0 0.0
2018-Apr-22 18:00N 33°44' W 118°16'0 0.0
2018-Apr-22 17:30N 33°44' W 118°16'0 0.0
2018-Apr-22 17:00N 33°44' W 118°16'0 0.0
2018-Apr-22 16:30N 33°44' W 118°16'0 0.0
2018-Apr-22 16:00N 33°44' W 118°16'0 0.0
2018-Apr-22 15:30N 33°44' W 118°16'0 0.0
2018-Apr-22 15:00N 33°44' W 118°16'0 0.0
2018-Apr-22 14:30N 33°44' W 118°16'0 0.0
2018-Apr-22 14:00N 33°44' W 118°16'0 0.0
2018-Apr-22 13:30N 33°44' W 118°16'0 0.0
2018-Apr-22 13:00N 33°44' W 118°16'0 0.0
2018-Apr-22 12:30N 33°44' W 118°16'0 0.0
2018-Apr-22 12:00N 33°44' W 118°16'0 0.0
2018-Apr-22 11:30N 33°44' W 118°16'0 0.0
2018-Apr-22 11:00N 33°44' W 118°16'0 0.0
2018-Apr-22 10:30N 33°44' W 118°16'0 0.0
2018-Apr-22 10:00N 33°44' W 118°16'0 0.0
2018-Apr-22 09:30N 33°44' W 118°16'0 0.0
2018-Apr-22 09:00N 33°44' W 118°16'0 0.0
2018-Apr-22 08:30N 33°44' W 118°16'0 0.0
2018-Apr-22 08:00N 33°44' W 118°16'0 0.0
2018-Apr-22 07:30N 33°44' W 118°16'0 0.0
2018-Apr-22 07:00N 33°44' W 118°16'0 0.0
2018-Apr-22 06:30N 33°44' W 118°16'0 0.0
2018-Apr-22 06:00N 33°44' W 118°16'0 0.0
2018-Apr-22 05:30N 33°44' W 118°16'0 0.0
2018-Apr-22 05:00N 33°44' W 118°16'0 0.0
2018-Apr-22 04:30N 33°44' W 118°16'0 0.0
2018-Apr-22 04:00N 33°44' W 118°16'0 0.0
2018-Apr-22 03:30N 33°44' W 118°16'0 0.0
2018-Apr-22 03:00N 33°44' W 118°16'0 0.0
2018-Apr-22 02:30N 33°44' W 118°16'0 0.0
2018-Apr-22 02:00N 33°44' W 118°16'0 0.0
2018-Apr-22 01:30N 33°44' W 118°16'0 0.0
2018-Apr-22 01:00N 33°44' W 118°16'0 0.0
2018-Apr-22 00:30N 33°44' W 118°16'0 0.0
2018-Apr-22 00:00N 33°44' W 118°16'0 0.0
2018-Apr-21 23:29N 33°44' W 118°16'0 0.0
2018-Apr-21 23:00N 33°44' W 118°16'0 0.0
2018-Apr-21 22:30N 33°44' W 118°16'0 0.0
2018-Apr-21 22:00N 33°44' W 118°16'0 0.0
2018-Apr-21 21:30N 33°44' W 118°16'0 0.0
2018-Apr-21 21:00N 33°44' W 118°16'0 0.0
2018-Apr-21 20:30N 33°44' W 118°16'0 0.0
2018-Apr-21 20:00N 33°44' W 118°16'0 0.0
2018-Apr-21 19:30N 33°44' W 118°16'0 0.0
2018-Apr-21 19:00N 33°44' W 118°16'0 0.0
2018-Apr-21 18:30N 33°44' W 118°16'0 0.0
2018-Apr-21 18:00N 33°44' W 118°16'0 0.0
2018-Apr-21 17:30N 33°44' W 118°16'0 0.0
2018-Apr-21 17:00N 33°44' W 118°16'0 0.0
2018-Apr-21 16:30N 33°44' W 118°16'0 0.0
2018-Apr-21 16:00N 33°44' W 118°16'0 0.0
2018-Apr-21 15:30N 33°44' W 118°16'0 0.0
2018-Apr-21 15:00N 33°44' W 118°16'0 0.0
2018-Apr-21 14:30N 33°44' W 118°16'0 0.0
2018-Apr-21 14:00N 33°44' W 118°16'0 0.0
2018-Apr-21 13:30N 33°44' W 118°16'0 0.0
2018-Apr-21 13:00N 33°44' W 118°16'0 0.0
2018-Apr-21 12:30N 33°44' W 118°16'0 0.0
2018-Apr-21 12:00N 33°44' W 118°16'0 0.0
2018-Apr-21 11:30N 33°44' W 118°16'0 0.0
2018-Apr-21 11:00N 33°44' W 118°16'0 0.0
2018-Apr-21 10:30N 33°44' W 118°16'0 0.0
2018-Apr-21 10:00N 33°44' W 118°16'0 0.0
2018-Apr-21 09:30N 33°44' W 118°16'0 0.0
2018-Apr-21 09:00N 33°44' W 118°16'0 0.0
2018-Apr-21 08:30N 33°44' W 118°16'0 0.0
2018-Apr-21 08:00N 33°44' W 118°16'0 0.0
2018-Apr-21 07:30N 33°44' W 118°16'0 0.0
2018-Apr-21 07:00N 33°44' W 118°16'0 0.0
2018-Apr-21 06:30N 33°44' W 118°16'0 0.0
2018-Apr-21 06:00N 33°44' W 118°16'0 0.0
2018-Apr-21 05:31N 33°44' W 118°16'0 0.0
2018-Apr-21 05:00N 33°44' W 118°16'0 0.0
2018-Apr-21 04:30N 33°44' W 118°16'0 0.0
2018-Apr-21 04:00N 33°44' W 118°16'0 0.0
2018-Apr-21 03:30N 33°44' W 118°16'0 0.0
2018-Apr-21 03:00N 33°44' W 118°16'0 0.0
2018-Apr-21 02:30N 33°44' W 118°16'0 0.0
2018-Apr-21 02:00N 33°44' W 118°16'0 0.0
2018-Apr-21 01:30N 33°44' W 118°16'0 0.0
2018-Apr-21 01:00N 33°44' W 118°16'0 0.1
2018-Apr-21 00:30N 33°44' W 118°16'0 0.1
2018-Apr-21 00:00N 33°44' W 118°16'0 0.0
2018-Apr-20 23:30N 33°44' W 118°16'0 0.1
2018-Apr-20 22:59N 33°44' W 118°16'0 0.1
2018-Apr-20 22:30N 33°44' W 118°16'0 0.0
2018-Apr-20 22:00N 33°44' W 118°16'0 0.0
2018-Apr-20 21:28N 33°44' W 118°16'0 0.0
2018-Apr-20 20:58N 33°44' W 118°16'0 0.0
2018-Apr-20 20:30N 33°44' W 118°16'0 0.0
2018-Apr-20 20:00N 33°44' W 118°16'0 0.0
2018-Apr-20 19:30N 33°44' W 118°16'0 0.0
2018-Apr-20 19:00N 33°44' W 118°16'0 0.0
2018-Apr-20 18:30N 33°44' W 118°16'0 0.0
2018-Apr-20 18:00N 33°44' W 118°16'0 0.0
2018-Apr-20 17:30N 33°44' W 118°16'0 0.0
2018-Apr-20 17:00N 33°44' W 118°16'0 0.0
2018-Apr-20 16:30N 33°44' W 118°16'0 0.0
2018-Apr-20 16:00N 33°44' W 118°16'0 0.0
2018-Apr-20 15:30N 33°44' W 118°16'0 0.0
2018-Apr-20 15:00N 33°44' W 118°16'0 0.0
2018-Apr-20 14:30N 33°44' W 118°16'0 0.0
2018-Apr-20 14:00N 33°44' W 118°16'0 0.0
2018-Apr-20 13:30N 33°44' W 118°16'0 0.0
2018-Apr-20 13:00N 33°44' W 118°16'0 0.0
2018-Apr-20 12:30N 33°44' W 118°16'0 0.0
2018-Apr-20 12:00N 33°44' W 118°16'0 0.0
2018-Apr-20 11:30N 33°44' W 118°16'0 0.0
2018-Apr-20 11:00N 33°44' W 118°16'0 0.0
2018-Apr-20 10:30N 33°44' W 118°16'0 0.0
2018-Apr-20 09:58N 33°44' W 118°16'0 0.0
2018-Apr-20 09:30N 33°44' W 118°16'0 0.0
2018-Apr-20 09:00N 33°44' W 118°16'0 0.0
2018-Apr-20 08:30N 33°44' W 118°16'0 0.0
2018-Apr-20 08:00N 33°44' W 118°16'0 0.0
2018-Apr-20 07:30N 33°44' W 118°16'0 0.0
2018-Apr-20 07:00N 33°44' W 118°16'0 0.0
2018-Apr-20 06:30N 33°44' W 118°16'0 0.0
2018-Apr-20 06:00N 33°44' W 118°16'0 0.0
2018-Apr-20 05:30N 33°44' W 118°16'0 0.0
2018-Apr-20 05:00N 33°44' W 118°16'0 0.0
2018-Apr-20 04:30N 33°44' W 118°16'0 0.0
2018-Apr-20 04:00N 33°44' W 118°16'0 0.0
2018-Apr-20 03:28N 33°44' W 118°16'0 0.0
2018-Apr-20 03:00N 33°44' W 118°16'0 0.0
2018-Apr-20 02:29N 33°44' W 118°16'0 0.1
2018-Apr-20 02:01N 33°44' W 118°16'0 0.1
2018-Apr-20 01:30N 33°44' W 118°16'0 0.0
2018-Apr-20 01:00N 33°44' W 118°16'0 0.0
2018-Apr-20 00:30N 33°44' W 118°16'0 0.0
2018-Apr-20 00:00N 33°44' W 118°16'0 0.0
2018-Apr-19 23:30N 33°44' W 118°16'0 0.0
2018-Apr-19 23:00N 33°44' W 118°16'0 0.0
2018-Apr-19 22:30N 33°44' W 118°16'0 0.0
2018-Apr-19 21:59N 33°44' W 118°16'0 0.0
2018-Apr-19 21:30N 33°44' W 118°16'0 0.0
2018-Apr-19 21:00N 33°44' W 118°16'0 0.5
2018-Apr-19 20:30N 33°44' W 118°16'0 0.0
2018-Apr-19 20:00N 33°44' W 118°16'0 0.0
2018-Apr-19 02:49N 33°44' W 118°16'0 0.0
2018-Apr-19 02:30N 33°44' W 118°16'0 0.0
2018-Apr-19 02:00N 33°44' W 118°16'0 0.0
2018-Apr-19 01:30N 33°44' W 118°16'0 0.0
2018-Apr-19 01:00N 33°44' W 118°16'0 0.0
2018-Apr-19 00:29N 33°44' W 118°16'0 0.0
2018-Apr-19 00:00N 33°44' W 118°16'0 0.0
2018-Apr-18 23:30N 33°44' W 118°16'0 0.0
2018-Apr-18 23:00N 33°44' W 118°16'0 0.0
2018-Apr-18 22:13N 33°44' W 118°16'0 0.0
2018-Apr-18 22:00N 33°44' W 118°16'0 0.0
2018-Apr-18 21:30N 33°44' W 118°16'0 0.5
2018-Apr-18 21:00N 33°44' W 118°16'0 0.0
2018-Apr-18 20:30N 33°44' W 118°16'0 0.0
2018-Apr-18 20:00N 33°44' W 118°16'  

Dump ship's entire track history